Time;durP1;ratioP1;P1;durP2;ratioP2;P2;SDS_P1;SDS_P2;PMS_P1;PMS_P2;Temp;Humidity;BMP_temperature;BMP_pressure;BME280_temperature;BME280_humidity;BME280_pressure;Samples;Min_cycle;Max_cycle;Signal;HPM_P1;HPM_P2
2022/11/20 00:01:29;;;;;;;22.83;14.77;;;-0.70;99.90;;;;;;4894107;29;38741;-80
2022/11/20 00:04:00;;;;;;;23.23;14.00;;;-0.70;99.90;;;;;;4896601;29;37482;-81
2022/11/20 00:06:30;;;;;;;24.83;15.23;;;-0.70;99.90;;;;;;4897408;29;39745;-81
2022/11/20 00:08:58;;;;;;;24.17;14.93;;;-0.80;99.90;;;;;;4895124;29;37198;-80
2022/11/20 00:11:25;;;;;;;23.20;14.03;;;-0.90;99.90;;;;;;4897594;29;39224;-80
2022/11/20 00:13:54;;;;;;;26.37;13.50;;;-0.90;99.90;;;;;;4899103;29;37047;-80
2022/11/20 00:16:23;;;;;;;22.50;13.40;;;-1.00;99.90;;;;;;4880688;29;37460;-80
2022/11/20 00:18:50;;;;;;;23.83;15.17;;;-1.00;99.90;;;;;;4899423;29;39381;-80
2022/11/20 00:21:19;;;;;;;23.17;13.70;;;-0.90;99.90;;;;;;4898444;29;38025;-79
2022/11/20 00:23:47;;;;;;;25.90;15.47;;;-1.00;99.90;;;;;;4899944;29;37292;-80
2022/11/20 00:26:15;;;;;;;26.17;15.97;;;-1.00;99.90;;;;;;4892237;29;39522;-79
2022/11/20 00:28:42;;;;;;;23.23;15.13;;;-1.00;99.90;;;;;;4896054;29;38895;-80
2022/11/20 00:31:12;;;;;;;24.27;14.57;;;-1.10;99.90;;;;;;4894310;29;37902;-80
2022/11/20 00:33:39;;;;;;;24.20;15.10;;;-1.20;99.90;;;;;;4893728;29;38031;-80
2022/11/20 00:36:08;;;;;;;28.20;15.37;;;-1.30;99.90;;;;;;4894462;29;38915;-79
2022/11/20 00:38:34;;;;;;;29.73;16.83;;;-1.30;99.90;;;;;;4885167;29;39167;-80
2022/11/20 00:41:03;;;;;;;23.87;14.77;;;-1.30;99.90;;;;;;4895326;29;36757;-80
2022/11/20 00:43:29;;;;;;;27.73;16.23;;;-1.30;99.90;;;;;;4893449;29;37848;-80
2022/11/20 00:46:00;;;;;;;26.17;16.33;;;-1.30;99.90;;;;;;4904611;29;37963;-80
2022/11/20 00:48:26;;;;;;;25.10;14.63;;;-1.30;99.90;;;;;;4902676;29;36782;-81
2022/11/20 00:50:53;;;;;;;24.57;15.27;;;-1.30;99.90;;;;;;4886866;29;37860;-81
2022/11/20 00:53:20;;;;;;;24.67;15.50;;;-1.30;99.90;;;;;;4886709;29;35883;-80
2022/11/20 00:56:03;;;;;;;24.93;14.70;;;-1.30;99.90;;;;;;4904195;29;38557;-80
2022/11/20 00:58:31;;;;;;;23.80;14.73;;;-1.40;99.90;;;;;;4905077;29;38015;-80
2022/11/20 01:01:12;;;;;;;21.27;14.40;;;-1.30;99.90;;;;;;4892694;29;37233;-81
2022/11/20 01:03:45;;;;;;;26.47;16.30;;;-1.40;99.90;;;;;;4887206;29;47067;-80
2022/11/20 01:06:11;;;;;;;;;;;-1.50;99.90;;;;;;4903524;29;38155;-81
2022/11/20 01:08:38;;;;;;;24.83;14.60;;;-1.50;99.90;;;;;;4903508;29;37373;-79
2022/11/20 01:11:09;;;;;;;25.47;15.37;;;-1.60;99.90;;;;;;4901580;29;37876;-81
2022/11/20 01:13:39;;;;;;;25.07;15.10;;;-1.60;99.90;;;;;;4889775;29;47205;-79
2022/11/20 01:16:09;;;;;;;23.33;15.10;;;-1.60;99.90;;;;;;4885849;29;37703;-77
2022/11/20 01:18:43;;;;;;;34.07;16.33;;;-1.50;99.90;;;;;;4902765;29;36802;-81
2022/11/20 01:21:13;;;;;;;24.33;15.60;;;-1.60;99.90;;;;;;4901021;29;37614;-81
2022/11/20 01:23:41;;;;;;;25.07;15.20;;;-1.60;99.90;;;;;;4902290;29;38062;-80
2022/11/20 01:26:11;;;;;;;23.83;14.57;;;-1.60;99.90;;;;;;4905085;29;38763;-81
2022/11/20 01:28:40;;;;;;;27.37;16.00;;;-1.60;99.90;;;;;;4886684;29;38378;-80
2022/11/20 01:31:20;;;;;;;25.80;15.73;;;-1.60;99.90;;;;;;4905315;29;38722;-80
2022/11/20 01:33:48;;;;;;;24.23;15.17;;;-1.50;99.90;;;;;;4889001;29;35944;-80
2022/11/20 01:36:16;;;;;;;27.07;16.03;;;-1.50;99.90;;;;;;4893885;29;37702;-80
2022/11/20 01:38:42;;;;;;;25.87;16.50;;;-1.60;99.90;;;;;;4908140;29;37100;-81
2022/11/20 01:41:10;;;;;;;25.80;15.30;;;-1.60;99.90;;;;;;4905030;29;38060;-80
2022/11/20 01:43:37;;;;;;;24.97;15.33;;;-1.70;99.90;;;;;;4899882;29;37919;-80
2022/11/20 01:46:14;;;;;;;27.07;17.17;;;-1.70;99.90;;;;;;4891156;29;37298;-78
2022/11/20 01:48:50;;;;;;;27.20;16.33;;;-1.70;99.90;;;;;;4893700;29;47174;-78
2022/11/20 01:51:33;;;;;;;23.90;15.23;;;-1.70;99.90;;;;;;4886903;29;36958;-78
2022/11/20 01:54:04;;;;;;;27.17;16.70;;;-1.70;99.90;;;;;;4889031;29;35970;-80
2022/11/20 01:56:35;;;;;;;26.27;15.73;;;-1.80;99.90;;;;;;4898297;29;48998;-79
2022/11/20 01:59:03;;;;;;;26.23;16.57;;;-1.90;99.90;;;;;;4897608;29;38547;-80
2022/11/20 02:04:08;;;;;;;25.43;15.60;;;-1.90;99.90;;;;;;4474426;23;21596;-73
2022/11/20 02:06:48;;;;;;;26.20;15.23;;;-1.80;99.90;;;;;;4879476;29;38956;-72
2022/11/20 02:09:15;;;;;;;32.00;17.07;;;-1.90;99.90;;;;;;4865620;29;37094;-74
2022/11/20 02:11:41;;;;;;;28.97;16.87;;;-1.90;99.90;;;;;;4879282;29;37654;-73
2022/11/20 02:14:08;;;;;;;24.43;16.30;;;-1.80;99.90;;;;;;4880659;29;37606;-72
2022/11/20 02:16:39;;;;;;;24.50;14.90;;;-1.90;99.90;;;;;;4883187;29;37974;-74
2022/11/20 02:19:11;;;;;;;26.33;15.80;;;-1.80;99.90;;;;;;4880985;29;37111;-74
2022/11/20 02:21:48;;;;;;;26.08;15.27;;;-1.70;99.90;;;;;;4889291;29;38101;-73
2022/11/20 02:24:19;;;;;;;22.93;14.40;;;-1.80;99.90;;;;;;4885047;29;36278;-74
2022/11/20 02:27:08;;;;;;;25.03;15.23;;;-1.90;99.90;;;;;;4885682;29;38909;-74
2022/11/20 02:29:39;;;;;;;24.37;16.10;;;-1.90;99.90;;;;;;4886899;29;46671;-74
2022/11/20 02:32:05;;;;;;;24.37;15.53;;;-1.90;99.90;;;;;;4887380;29;36893;-73
2022/11/20 02:34:31;;;;;;;25.63;15.50;;;-1.80;99.90;;;;;;4887890;29;37210;-74
2022/11/20 02:36:59;;;;;;;26.63;16.63;;;-1.80;99.90;;;;;;4891987;29;38351;-73
2022/11/20 02:39:28;;;;;;;25.87;16.20;;;-1.90;99.90;;;;;;4873285;29;37041;-74
2022/11/20 02:41:55;;;;;;;26.33;15.57;;;-1.90;99.90;;;;;;4891313;29;37331;-73
2022/11/20 02:44:21;;;;;;;42.10;18.53;;;-2.00;99.90;;;;;;4889233;29;37723;-74
2022/11/20 02:46:47;;;;;;;25.33;15.90;;;-2.10;99.90;;;;;;4888911;29;40228;-73
2022/11/20 02:49:13;;;;;;;25.50;15.00;;;-2.00;99.90;;;;;;4890594;29;38572;-74
2022/11/20 02:51:39;;;;;;;29.50;15.83;;;-1.90;99.90;;;;;;4886756;29;38732;-73
2022/11/20 02:54:06;;;;;;;24.07;15.63;;;-1.90;99.90;;;;;;4876362;29;37424;-71
2022/11/20 02:56:32;;;;;;;27.13;16.70;;;-1.90;99.90;;;;;;4874016;29;38880;-73
2022/11/20 02:58:58;;;;;;;23.70;14.67;;;-1.90;99.90;;;;;;4890294;29;39761;-73
2022/11/20 03:01:24;;;;;;;28.70;16.10;;;-2.00;99.90;;;;;;4889628;29;37210;-71
2022/11/20 03:03:50;;;;;;;23.57;14.77;;;-1.90;99.90;;;;;;4869309;29;36985;-72
2022/11/20 03:06:16;;;;;;;26.83;15.03;;;-1.90;99.90;;;;;;4869012;29;40458;-72
2022/11/20 03:08:43;;;;;;;25.57;14.83;;;-1.90;99.90;;;;;;4881870;29;37668;-73
2022/11/20 03:11:09;;;;;;;27.73;17.03;;;-1.90;99.90;;;;;;4869695;29;37940;-72
2022/11/20 03:13:35;;;;;;;27.30;16.93;;;-2.10;99.90;;;;;;4886720;29;36366;-72
2022/11/20 03:16:17;;;;;;;26.90;15.87;;;-2.10;99.90;;;;;;4882872;29;37839;-72
2022/11/20 03:18:43;;;;;;;23.57;15.63;;;-2.10;99.90;;;;;;4883823;29;47064;-71
2022/11/20 03:21:11;;;;;;;23.67;15.13;;;-2.20;99.90;;;;;;4873003;29;37942;-74
2022/11/20 03:23:38;;;;;;;29.03;16.80;;;-2.10;99.90;;;;;;4870214;29;37998;-73
2022/11/20 03:26:24;;;;;;;27.13;16.67;;;-2.20;99.90;;;;;;4870695;29;37931;-74
2022/11/20 03:28:53;;;;;;;26.87;15.70;;;-2.20;99.90;;;;;;4869908;29;49180;-75
2022/11/20 03:31:22;;;;;;;27.30;15.80;;;-2.10;99.90;;;;;;4882119;29;36172;-74
2022/11/20 03:33:49;;;;;;;26.20;15.60;;;-2.20;99.90;;;;;;4870219;29;37774;-73
2022/11/20 03:36:16;;;;;;;28.47;16.23;;;-2.20;99.90;;;;;;4865839;29;39823;-74
2022/11/20 03:38:43;;;;;;;29.23;17.07;;;-2.30;99.90;;;;;;4862546;29;38244;-73
2022/11/20 03:41:14;;;;;;;28.90;17.73;;;-2.30;99.90;;;;;;4883350;29;37881;-74
2022/11/20 03:43:40;;;;;;;31.50;16.90;;;-2.30;99.90;;;;;;4869026;29;38356;-74
2022/11/20 03:46:07;;;;;;;29.10;16.13;;;-2.30;99.90;;;;;;4881233;29;37956;-75
2022/11/20 03:48:33;;;;;;;25.07;15.20;;;-2.30;99.90;;;;;;4882367;29;38260;-74
2022/11/20 03:51:12;;;;;;;25.17;15.53;;;-2.40;99.90;;;;;;4869746;29;37791;-74
2022/11/20 03:53:40;;;;;;;27.17;16.23;;;-2.40;99.90;;;;;;4867353;29;47566;-74
2022/11/20 03:56:07;;;;;;;26.93;15.87;;;-2.40;99.90;;;;;;4859964;29;37782;-75
2022/11/20 03:58:37;;;;;;;26.73;16.20;;;-2.40;99.90;;;;;;4864682;29;36790;-74
2022/11/20 04:01:23;;;;;;;30.50;17.13;;;-2.40;99.90;;;;;;4864070;29;37974;-74
2022/11/20 04:03:52;;;;;;;24.17;15.20;;;-2.40;99.90;;;;;;4872850;29;47352;-73
2022/11/20 04:06:26;;;;;;;24.87;15.33;;;-2.40;99.90;;;;;;4860334;29;37939;-73
2022/11/20 04:08:56;;;;;;;26.80;16.10;;;-2.50;99.90;;;;;;4863194;29;39064;-74
2022/11/20 04:11:25;;;;;;;30.13;16.53;;;-2.50;99.90;;;;;;4862684;29;39456;-74
2022/11/20 04:13:53;;;;;;;25.27;14.70;;;-2.40;99.90;;;;;;4863790;29;36110;-74
2022/11/20 04:16:21;;;;;;;25.80;15.27;;;-2.40;99.90;;;;;;4865752;29;38933;-74
2022/11/20 04:18:47;;;;;;;28.87;16.33;;;-2.40;99.90;;;;;;4861754;29;38144;-75
2022/11/20 04:21:13;;;;;;;27.57;16.23;;;-2.40;99.90;;;;;;4869070;29;38356;-74
2022/11/20 04:23:39;;;;;;;29.23;16.80;;;-2.40;99.90;;;;;;4869539;29;38212;-73
2022/11/20 04:26:10;;;;;;;26.37;17.03;;;-2.30;99.90;;;;;;4868441;29;37659;-75
2022/11/20 04:28:37;;;;;;;25.90;15.17;;;-2.30;99.90;;;;;;4871756;29;38620;-74
2022/11/20 04:31:12;;;;;;;28.73;16.70;;;-2.30;99.90;;;;;;4886518;29;37043;-74
2022/11/20 04:33:39;;;;;;;29.07;16.83;;;-2.30;99.90;;;;;;4867634;29;49135;-74
2022/11/20 04:36:13;;;;;;;28.73;17.83;;;-2.30;99.90;;;;;;4867089;29;38514;-74
2022/11/20 04:38:40;;;;;;;29.03;17.07;;;-2.20;99.90;;;;;;4882138;29;37247;-74
2022/11/20 04:41:10;;;;;;;32.53;18.47;;;-2.20;99.90;;;;;;4868427;29;37614;-74
2022/11/20 04:43:36;;;;;;;29.40;17.40;;;-2.20;99.90;;;;;;4872195;29;37674;-74
2022/11/20 04:46:02;;;;;;;25.87;17.23;;;-2.30;99.90;;;;;;4873547;29;38634;-74
2022/11/20 04:48:29;;;;;;;28.60;16.63;;;-2.30;99.90;;;;;;4871797;29;39071;-74
2022/11/20 04:50:55;;;;;;;26.17;16.87;;;-2.40;99.90;;;;;;4870802;29;38250;-74
2022/11/20 04:53:22;;;;;;;30.03;18.00;;;-2.40;99.90;;;;;;4868614;29;37959;-72
2022/11/20 04:55:49;;;;;;;33.03;17.90;;;-2.40;99.90;;;;;;4871355;29;39685;-74
2022/11/20 04:58:15;;;;;;;29.90;16.87;;;-2.40;99.90;;;;;;4884612;29;38176;-73
2022/11/20 05:00:41;;;;;;;29.73;17.33;;;-2.30;99.90;;;;;;4881451;29;37365;-74
2022/11/20 05:03:07;;;;;;;30.03;17.80;;;-2.30;99.90;;;;;;4870832;29;36372;-74
2022/11/20 05:05:34;;;;;;;27.97;17.93;;;-2.30;99.90;;;;;;4870018;29;40054;-74
2022/11/20 05:08:01;;;;;;;26.23;17.03;;;-2.30;99.90;;;;;;4870190;29;39571;-74
2022/11/20 05:10:27;;;;;;;30.33;17.70;;;-2.30;99.90;;;;;;4871023;29;39288;-74
2022/11/20 05:12:54;;;;;;;26.97;16.80;;;-2.20;99.90;;;;;;4872478;29;36553;-74
2022/11/20 05:15:20;;;;;;;25.07;16.20;;;-2.20;99.90;;;;;;4885527;29;37876;-75
2022/11/20 05:17:50;;;;;;;28.40;15.77;;;-2.20;99.90;;;;;;4873585;29;37634;-73
2022/11/20 05:20:17;;;;;;;26.30;16.93;;;-2.20;99.90;;;;;;4870533;29;38173;-74
2022/11/20 05:22:43;;;;;;;26.27;16.67;;;-2.20;99.90;;;;;;4868126;29;36742;-74
2022/11/20 05:25:13;;;;;;;30.17;17.03;;;-2.30;99.90;;;;;;4869086;29;38682;-75
2022/11/20 05:27:39;;;;;;;27.70;17.70;;;-2.30;99.90;;;;;;4868361;29;38945;-75
2022/11/20 05:30:06;;;;;;;30.20;17.07;;;-2.40;99.90;;;;;;4868242;29;38792;-74
2022/11/20 05:32:32;;;;;;;31.80;18.00;;;-2.40;99.90;;;;;;4883303;29;38292;-74
2022/11/20 05:34:58;;;;;;;26.33;16.60;;;-2.40;99.90;;;;;;4881010;29;39277;-74
2022/11/20 05:37:24;;;;;;;24.63;16.17;;;-2.40;99.90;;;;;;4885305;29;39417;-75
2022/11/20 05:39:51;;;;;;;27.33;17.20;;;-2.30;99.90;;;;;;4873213;29;38932;-74
2022/11/20 05:42:32;;;;;;;29.07;17.37;;;-2.30;99.90;;;;;;4850889;29;36442;-75
2022/11/20 05:45:00;;;;;;;29.17;17.13;;;-2.30;99.90;;;;;;4872542;29;39284;-74
2022/11/20 05:47:27;;;;;;;29.33;16.90;;;-2.30;99.90;;;;;;4873238;29;37604;-75
2022/11/20 05:49:53;;;;;;;29.97;17.07;;;-2.40;99.90;;;;;;4873389;29;38555;-74
2022/11/20 05:52:20;;;;;;;32.63;18.23;;;-2.40;99.90;;;;;;4868032;29;36112;-74
2022/11/20 05:54:46;;;;;;;31.40;18.10;;;-2.40;99.90;;;;;;4871528;29;38661;-75
2022/11/20 05:57:12;;;;;;;28.80;17.43;;;-2.40;99.90;;;;;;4871453;29;38393;-74
2022/11/20 05:59:38;;;;;;;33.43;19.30;;;-2.30;99.90;;;;;;4871826;29;36805;-75
2022/11/20 06:02:04;;;;;;;30.23;17.70;;;-2.30;99.90;;;;;;4885025;29;36279;-75
2022/11/20 06:04:30;;;;;;;26.23;16.97;;;-2.40;99.90;;;;;;4894087;29;38591;-74
2022/11/20 06:06:56;;;;;;;29.57;17.47;;;-2.30;99.90;;;;;;4878845;29;37482;-75
2022/11/20 06:09:23;;;;;;;32.27;17.77;;;-2.30;99.90;;;;;;4890572;29;38264;-72
2022/11/20 06:11:49;;;;;;;28.93;17.57;;;-2.30;99.90;;;;;;4886340;29;38477;-74
2022/11/20 06:14:15;;;;;;;28.77;17.17;;;-2.30;99.90;;;;;;4874135;29;38883;-74
2022/11/20 06:16:41;;;;;;;26.90;18.03;;;-2.40;99.90;;;;;;4887890;29;36335;-75
2022/11/20 06:19:07;;;;;;;27.47;17.77;;;-2.40;99.90;;;;;;4874212;29;37112;-75
2022/11/20 06:21:33;;;;;;;32.67;18.73;;;-2.40;99.90;;;;;;4888170;29;37132;-75
2022/11/20 06:23:59;;;;;;;34.27;19.53;;;-2.30;99.90;;;;;;4878457;29;38507;-74
2022/11/20 06:26:27;;;;;;;31.97;19.13;;;-2.30;99.90;;;;;;4890656;29;39707;-75
2022/11/20 06:28:55;;;;;;;34.47;20.23;;;-2.10;99.90;;;;;;4876162;29;39436;-75
2022/11/20 06:31:23;;;;;;;37.70;18.83;;;-2.00;99.90;;;;;;4871743;29;38223;-75
2022/11/20 06:33:50;;;;;;;28.57;18.23;;;-1.90;99.90;;;;;;4887451;29;37668;-75
2022/11/20 06:36:18;;;;;;;34.03;20.07;;;-1.90;99.90;;;;;;4888504;29;39385;-74
2022/11/20 06:38:44;;;;;;;33.13;20.97;;;-1.80;99.90;;;;;;4885763;29;37021;-75
2022/11/20 06:41:14;;;;;;;30.37;19.30;;;-1.70;99.90;;;;;;4886203;29;37112;-75
2022/11/20 06:43:40;;;;;;;31.90;19.73;;;-1.60;99.90;;;;;;4887290;29;38971;-75
2022/11/20 06:46:08;;;;;;;32.70;19.80;;;-1.50;99.90;;;;;;4872757;29;37629;-74
2022/11/20 06:48:34;;;;;;;30.70;19.37;;;-1.40;99.90;;;;;;4871681;29;37232;-74
2022/11/20 06:51:03;;;;;;;31.73;20.47;;;-1.40;99.90;;;;;;4876230;29;37058;-74
2022/11/20 06:53:29;;;;;;;31.07;19.43;;;-1.30;99.90;;;;;;4883526;29;38107;-73
2022/11/20 06:55:59;;;;;;;33.67;19.87;;;-1.20;99.90;;;;;;4886624;29;37319;-74
2022/11/20 06:58:30;;;;;;;31.60;19.60;;;-1.10;99.90;;;;;;4871939;29;37242;-73
2022/11/20 07:01:07;;;;;;;37.83;22.67;;;-1.10;99.90;;;;;;4882670;29;37413;-73
2022/11/20 07:03:33;;;;;;;31.07;20.13;;;-1.10;99.90;;;;;;4865394;29;47228;-73
2022/11/20 07:06:01;;;;;;;35.37;21.57;;;-1.10;99.90;;;;;;4883186;29;39598;-72
2022/11/20 07:08:27;;;;;;;40.83;23.37;;;-1.10;99.90;;;;;;4873498;29;38202;-75
2022/11/20 07:11:01;;;;;;;38.77;24.00;;;-1.00;99.90;;;;;;4871711;29;37534;-75
2022/11/20 07:13:28;;;;;;;44.70;24.27;;;-1.00;99.90;;;;;;4881200;29;38761;-75
2022/11/20 07:15:54;;;;;;;40.97;22.70;;;-1.00;99.90;;;;;;4890892;29;39608;-74
2022/11/20 07:18:21;;;;;;;36.93;22.17;;;-0.90;99.90;;;;;;4869815;29;37127;-73
2022/11/20 07:20:47;;;;;;;34.30;20.10;;;-0.90;99.90;;;;;;4869485;29;36329;-73
2022/11/20 07:23:13;;;;;;;33.03;20.90;;;-0.80;99.90;;;;;;4871206;29;41693;-74
2022/11/20 07:25:39;;;;;;;37.57;22.53;;;-0.80;99.90;;;;;;4888092;29;39043;-74
2022/11/20 07:28:05;;;;;;;34.70;19.97;;;-0.70;99.90;;;;;;4872554;29;38363;-74
2022/11/20 07:30:31;;;;;;;35.07;22.00;;;-0.60;99.90;;;;;;4869454;29;37309;-75
2022/11/20 07:32:57;;;;;;;38.07;22.13;;;-0.60;99.90;;;;;;4889122;29;38863;-72
2022/11/20 07:35:24;;;;;;;37.80;22.97;;;-0.50;99.90;;;;;;4886719;29;37314;-74
2022/11/20 07:37:50;;;;;;;41.73;24.77;;;-0.50;99.90;;;;;;4889100;29;38116;-75
2022/11/20 07:40:17;;;;;;;39.80;23.80;;;-0.40;99.90;;;;;;4889455;29;36328;-73
2022/11/20 07:42:51;;;;;;;38.13;22.80;;;-0.30;99.90;;;;;;4875218;29;39981;-73
2022/11/20 07:45:17;;;;;;;42.47;25.27;;;-0.30;99.90;;;;;;4884717;29;38706;-73
2022/11/20 07:47:43;;;;;;;37.87;24.50;;;-0.20;99.90;;;;;;4887282;29;37515;-73
2022/11/20 07:50:10;;;;;;;36.67;23.30;;;-0.10;99.90;;;;;;4889877;29;37334;-73
2022/11/20 07:52:37;;;;;;;35.77;22.90;;;-0.10;99.90;;;;;;4887661;29;37860;-73
2022/11/20 07:55:03;;;;;;;35.03;22.43;;;0.00;99.90;;;;;;4875924;29;38080;-74
2022/11/20 07:57:30;;;;;;;37.27;24.00;;;0.00;99.90;;;;;;4888880;29;46964;-73
2022/11/20 07:59:58;;;;;;;36.17;22.30;;;0.10;99.90;;;;;;4888654;29;37285;-73
2022/11/20 08:02:25;;;;;;;42.57;25.27;;;0.10;99.90;;;;;;4891019;29;39684;-73
2022/11/20 08:04:51;;;;;;;36.27;23.13;;;0.20;99.90;;;;;;4891169;29;38057;-73
2022/11/20 08:07:17;;;;;;;38.30;24.43;;;0.30;99.90;;;;;;4889760;29;38395;-72
2022/11/20 08:09:43;;;;;;;38.57;24.47;;;0.30;99.90;;;;;;4889997;29;36984;-72
2022/11/20 08:15:03;;;;;;;37.72;23.88;;;0.40;99.90;;;;;;4887102;29;38756;-73
2022/11/20 08:17:29;;;;;;;38.57;24.10;;;0.40;99.90;;;;;;4872972;29;36874;-73
2022/11/20 08:19:55;;;;;;;44.67;26.67;;;0.50;99.90;;;;;;4863360;29;34224;-73
2022/11/20 08:22:21;;;;;;;36.67;23.03;;;0.60;99.90;;;;;;4879066;29;39157;-72
2022/11/20 08:24:48;;;;;;;37.73;25.93;;;0.60;99.90;;;;;;4881095;29;38533;-72
2022/11/20 08:27:14;;;;;;;41.33;25.87;;;0.70;99.90;;;;;;4860897;29;37098;-73
2022/11/20 08:29:40;;;;;;;37.33;23.83;;;0.70;99.90;;;;;;4884120;29;36865;-73
2022/11/20 08:32:06;;;;;;;42.37;26.30;;;0.80;99.90;;;;;;4871123;29;38905;-72
2022/11/20 08:34:33;;;;;;;40.23;25.53;;;0.80;99.90;;;;;;4887614;29;37303;-72
2022/11/20 08:36:59;;;;;;;39.63;25.43;;;0.90;99.90;;;;;;4887519;29;38240;-73
2022/11/20 08:39:25;;;;;;;36.63;23.33;;;0.90;99.90;;;;;;4870199;29;38492;-72
2022/11/20 08:41:51;;;;;;;46.77;26.90;;;0.90;99.90;;;;;;4888363;29;38478;-73
2022/11/20 08:44:17;;;;;;;43.93;27.53;;;1.00;99.90;;;;;;4869562;29;37378;-73
2022/11/20 08:46:43;;;;;;;39.50;23.70;;;1.10;99.90;;;;;;4886130;29;37866;-73
2022/11/20 08:49:12;;;;;;;42.30;25.30;;;1.10;99.90;;;;;;4887031;29;38341;-73
2022/11/20 08:51:39;;;;;;;54.50;30.40;;;1.20;99.90;;;;;;4880203;29;40612;-72
2022/11/20 08:54:06;;;;;;;49.40;27.93;;;1.30;99.90;;;;;;4880111;29;37731;-73
2022/11/20 08:56:33;;;;;;;42.33;26.43;;;1.40;99.90;;;;;;4886185;29;37836;-72
2022/11/20 08:58:59;;;;;;;49.20;29.10;;;1.50;99.90;;;;;;4887996;29;38464;-73
2022/11/20 09:01:26;;;;;;;42.97;26.33;;;1.60;99.90;;;;;;4886679;29;37862;-73
2022/11/20 09:03:52;;;;;;;38.10;24.63;;;1.60;99.90;;;;;;4868704;29;37690;-73
2022/11/20 09:06:18;;;;;;;42.77;26.63;;;1.60;99.90;;;;;;4868561;29;38441;-72
2022/11/20 09:08:44;;;;;;;42.03;26.50;;;1.70;99.90;;;;;;4890441;29;37570;-73
2022/11/20 09:11:11;;;;;;;43.63;27.70;;;1.70;99.90;;;;;;4891479;29;38513;-73
2022/11/20 09:13:37;;;;;;;45.80;27.83;;;1.70;99.90;;;;;;4867608;29;38071;-72
2022/11/20 09:16:06;;;;;;;42.90;28.77;;;1.70;99.90;;;;;;4876149;29;37958;-73
2022/11/20 09:18:33;;;;;;;43.20;27.30;;;1.80;99.90;;;;;;4890215;29;48450;-73
2022/11/20 09:21:00;;;;;;;46.80;29.40;;;1.80;99.90;;;;;;4885567;29;39122;-73
2022/11/20 09:23:30;;;;;;;46.57;29.03;;;1.70;99.90;;;;;;4889393;29;39271;-74
2022/11/20 09:25:59;;;;;;;50.00;28.60;;;1.80;99.90;;;;;;4889260;29;38029;-73
2022/11/20 09:28:26;;;;;;;47.63;27.87;;;1.70;99.90;;;;;;4871767;29;37388;-73
2022/11/20 09:30:52;;;;;;;47.03;28.40;;;1.80;99.90;;;;;;4870746;29;39177;-73
2022/11/20 09:33:18;;;;;;;49.53;28.23;;;1.80;99.90;;;;;;4873945;29;37466;-73
2022/11/20 09:35:45;;;;;;;43.83;26.67;;;1.80;99.90;;;;;;4891547;29;38241;-72
2022/11/20 09:38:11;;;;;;;46.13;27.07;;;1.80;99.90;;;;;;4874307;29;37584;-73
2022/11/20 09:40:44;;;;;;;42.77;27.37;;;1.70;99.90;;;;;;4889739;29;38810;-73
2022/11/20 09:43:42;;;;;;;38.97;25.10;;;1.70;99.90;;;;;;4878886;29;38181;-74
2022/11/20 09:46:14;;;;;;;46.70;27.43;;;1.70;99.90;;;;;;4888142;29;36777;-73
2022/11/20 09:49:13;;;;;;;40.50;26.43;;;1.80;99.90;;;;;;4868015;29;36344;-73
2022/11/20 09:51:42;;;;;;;46.00;27.20;;;2.00;99.90;;;;;;4888119;29;47195;-72
2022/11/20 09:54:19;;;;;;;44.27;27.07;;;2.10;99.90;;;;;;4887304;29;38273;-73
2022/11/20 09:56:56;;;;;;;40.13;25.00;;;2.10;99.90;;;;;;4870712;29;38349;-73
2022/11/20 09:59:49;;;;;;;43.43;26.67;;;2.10;99.90;;;;;;4877385;29;36361;-72
2022/11/20 10:02:28;;;;;;;40.83;26.45;;;2.20;99.90;;;;;;4888898;29;38110;-73
2022/11/20 10:05:06;;;;;;;38.03;25.37;;;2.20;99.90;;;;;;4866281;29;39029;-74
2022/11/20 10:07:42;;;;;;;45.30;28.87;;;2.10;99.90;;;;;;4884996;29;48945;-73
2022/11/20 10:10:20;;;;;;;40.10;25.10;;;2.30;99.90;;;;;;4882622;29;37572;-74
2022/11/20 10:13:04;;;;;;;46.80;28.60;;;2.30;99.90;;;;;;4871435;29;37636;-74
2022/11/20 10:15:43;;;;;;;43.80;26.77;;;2.30;99.90;;;;;;4869644;29;46992;-73
2022/11/20 10:18:28;;;;;;;43.73;26.63;;;2.30;99.90;;;;;;4874080;29;38002;-74
2022/11/20 10:21:03;;;;;;;48.73;27.27;;;2.30;99.90;;;;;;4883108;29;38124;-74
2022/11/20 10:23:57;;;;;;;42.97;26.50;;;2.30;99.90;;;;;;4887108;29;38684;-73
2022/11/20 10:26:32;;;;;;;42.27;27.67;;;2.30;99.90;;;;;;4890761;29;38310;-73
2022/11/20 10:29:10;;;;;;;49.93;30.37;;;2.30;99.90;;;;;;4889803;29;37733;-74
2022/11/20 10:31:40;;;;;;;56.93;31.43;;;2.30;99.90;;;;;;4880846;29;48591;-73
2022/11/20 10:34:25;;;;;;;48.00;30.73;;;2.40;99.90;;;;;;4887237;29;39284;-74
2022/11/20 10:37:09;;;;;;;48.80;31.07;;;2.50;99.90;;;;;;4883293;29;38303;-73
2022/11/20 10:39:42;;;;;;;54.00;31.73;;;2.60;99.90;;;;;;4891164;29;47339;-74
2022/11/20 10:42:14;;;;;;;54.63;32.83;;;2.70;99.90;;;;;;4887344;29;37303;-74
2022/11/20 10:45:02;;;;;;;53.88;32.17;;;2.70;99.90;;;;;;4889212;29;38918;-74
2022/11/20 10:47:31;;;;;;;49.43;30.10;;;2.70;99.90;;;;;;4886536;29;39074;-74
2022/11/20 10:50:04;;;;;;;49.33;30.70;;;2.70;99.90;;;;;;4882774;29;38333;-74
2022/11/20 10:52:54;;;;;;;46.90;29.40;;;2.70;99.90;;;;;;4868506;29;45221;-74
2022/11/20 10:55:41;;;;;;;52.07;30.17;;;2.80;99.90;;;;;;4884502;29;38741;-74
2022/11/20 10:58:29;;;;;;;50.87;30.77;;;2.90;99.90;;;;;;4884714;29;38635;-74
2022/11/20 11:01:26;;;;;;;51.13;30.73;;;2.90;99.90;;;;;;4884527;29;37799;-74
2022/11/20 11:03:54;;;;;;;56.10;31.23;;;2.80;99.90;;;;;;4875649;29;48422;-73
2022/11/20 11:06:36;;;;;;;56.33;30.77;;;2.80;99.90;;;;;;4883386;29;37458;-75
2022/11/20 11:09:12;;;;;;;60.63;33.17;;;2.90;99.90;;;;;;4889329;29;39379;-73
2022/11/20 11:11:38;;;;;;;60.87;34.00;;;3.00;99.90;;;;;;4890133;29;48492;-73
2022/11/20 11:14:12;;;;;;;54.40;32.73;;;3.00;99.90;;;;;;4874088;29;20183;-72
2022/11/20 11:16:50;;;;;;;52.25;32.25;;;3.10;99.90;;;;;;4889496;29;38806;-72
2022/11/20 11:19:17;;;;;;;54.13;32.87;;;3.20;99.90;;;;;;4880502;29;37599;-72
2022/11/20 11:21:52;;;;;;;60.47;33.53;;;3.30;99.90;;;;;;4885373;29;38162;-73
2022/11/20 11:24:21;;;;;;;54.93;33.73;;;3.40;99.90;;;;;;4868981;29;35108;-74
2022/11/20 11:27:12;;;;;;;58.90;34.27;;;3.40;99.90;;;;;;4884009;29;39018;-74
2022/11/20 11:29:38;;;;;;;52.50;31.53;;;3.30;99.90;;;;;;4883915;29;48558;-74
2022/11/20 11:32:07;;;;;;;51.77;30.67;;;3.30;99.90;;;;;;4889175;29;37631;-74
2022/11/20 11:34:34;;;;;;;53.80;31.37;;;3.30;99.90;;;;;;4885578;29;37011;-74
2022/11/20 11:37:03;;;;;;;57.67;32.73;;;3.40;99.90;;;;;;4883962;29;38644;-73
2022/11/20 11:39:31;;;;;;;50.57;31.83;;;3.40;99.90;;;;;;4873200;29;47175;-73
2022/11/20 11:42:01;;;;;;;53.43;31.40;;;3.50;99.90;;;;;;4890850;29;37755;-74
2022/11/20 11:47:42;;;;;;;47.43;29.80;;;3.60;99.90;;;;;;4886628;29;40366;-73
2022/11/20 11:50:08;;;;;;;45.07;27.93;;;3.60;99.90;;;;;;4875889;29;38809;-73
2022/11/20 11:53:11;;;;;;;46.10;28.30;;;3.70;99.90;;;;;;4889240;29;38259;-74
2022/11/20 11:55:37;;;;;;;;;;;3.70;99.90;;;;;;4888670;29;48756;-73
2022/11/20 11:58:22;;;;;;;49.13;30.67;;;3.70;99.90;;;;;;4881855;29;37947;-74
2022/11/20 12:01:16;;;;;;;48.40;28.27;;;3.80;99.90;;;;;;4880698;29;38939;-73
2022/11/20 12:03:48;;;;;;;54.27;31.23;;;3.70;99.90;;;;;;4861048;29;46976;-73
2022/11/20 12:06:16;;;;;;;51.27;29.77;;;3.70;99.90;;;;;;4887176;29;37248;-74
2022/11/20 12:09:03;;;;;;;54.93;30.70;;;3.70;99.90;;;;;;4868313;29;37852;-74
2022/11/20 12:11:52;;;;;;;57.50;32.23;;;3.80;99.90;;;;;;4886594;29;47046;-74
2022/11/20 12:14:26;;;;;;;55.97;33.20;;;3.80;99.90;;;;;;4884254;29;36798;-75
2022/11/20 12:16:53;;;;;;;53.70;31.33;;;3.80;99.90;;;;;;4885539;29;36312;-74
2022/11/20 12:19:20;;;;;;;58.53;34.17;;;3.80;99.90;;;;;;4876509;29;39510;-75
2022/11/20 12:21:58;;;;;;;59.87;33.47;;;3.90;99.90;;;;;;4866098;29;38260;-73
2022/11/20 12:24:58;;;;;;;56.67;32.63;;;3.90;99.90;;;;;;4884837;29;37947;-73
2022/11/20 12:27:52;;;;;;;60.83;33.60;;;3.90;99.90;;;;;;4887671;29;37247;-73
2022/11/20 12:30:19;;;;;;;65.67;35.67;;;4.00;99.90;;;;;;4883266;29;37892;-74
2022/11/20 12:33:05;;;;;;;60.00;34.43;;;4.00;99.90;;;;;;4886935;29;38247;-73
2022/11/20 12:35:59;;;;;;;66.67;34.70;;;4.00;99.90;;;;;;4859984;29;47123;-73
2022/11/20 12:39:02;;;;;;;69.07;36.70;;;4.10;99.90;;;;;;4881632;29;36556;-73
2022/11/20 12:45:14;;;;;;;65.03;35.03;;;4.20;99.90;;;;;;4880800;29;49114;-73
2022/11/20 12:47:43;;;;;;;63.97;36.03;;;4.20;99.90;;;;;;4886950;29;47039;-73
2022/11/20 12:50:15;;;;;;;68.40;37.00;;;4.30;99.90;;;;;;4892793;29;37556;-73
2022/11/20 12:52:56;;;;;;;67.45;36.55;;;4.30;99.90;;;;;;4886887;29;38436;-73
2022/11/20 12:55:41;;;;;;;73.13;38.77;;;4.30;99.90;;;;;;4889235;29;37250;-72
2022/11/20 12:58:36;;;;;;;67.53;35.77;;;4.30;99.90;;;;;;4881246;29;37855;-72
2022/11/20 13:01:40;;;;;;;75.00;36.53;;;4.40;99.90;;;;;;4888936;29;37546;-73